sensor_id;sensor_type;location;lat;lon;timestamp;pressure;altitude;pressure_sealevel;temperature
41940;BMP180;23057;48.554;14.454;2024-02-26T00:01:47;92246.00;;;7.00
41940;BMP180;23057;48.554;14.454;2024-02-26T00:04:18;92243.00;;;7.00
41940;BMP180;23057;48.554;14.454;2024-02-26T00:06:49;92235.00;;;7.00
41940;BMP180;23057;48.554;14.454;2024-02-26T00:09:22;92242.00;;;7.10
41940;BMP180;23057;48.554;14.454;2024-02-26T00:11:53;92236.00;;;7.10
41940;BMP180;23057;48.554;14.454;2024-02-26T00:14:25;92246.00;;;7.10
41940;BMP180;23057;48.554;14.454;2024-02-26T00:16:57;92238.00;;;7.00
41940;BMP180;23057;48.554;14.454;2024-02-26T00:19:27;92237.00;;;7.00
41940;BMP180;23057;48.554;14.454;2024-02-26T00:21:58;92231.00;;;7.00
41940;BMP180;23057;48.554;14.454;2024-02-26T00:24:29;92226.00;;;6.90
41940;BMP180;23057;48.554;14.454;2024-02-26T00:27:00;92218.00;;;6.90
41940;BMP180;23057;48.554;14.454;2024-02-26T00:29:31;92226.00;;;6.80
41940;BMP180;23057;48.554;14.454;2024-02-26T00:32:03;92222.00;;;6.80
41940;BMP180;23057;48.554;14.454;2024-02-26T00:34:34;92226.00;;;6.80
41940;BMP180;23057;48.554;14.454;2024-02-26T00:37:05;92215.00;;;6.70
41940;BMP180;23057;48.554;14.454;2024-02-26T00:39:36;92216.00;;;6.70
41940;BMP180;23057;48.554;14.454;2024-02-26T00:42:07;92219.00;;;6.70
41940;BMP180;23057;48.554;14.454;2024-02-26T00:44:38;92214.00;;;6.60
41940;BMP180;23057;48.554;14.454;2024-02-26T00:47:09;92217.00;;;6.60
41940;BMP180;23057;48.554;14.454;2024-02-26T00:49:40;92205.00;;;6.60
41940;BMP180;23057;48.554;14.454;2024-02-26T00:52:11;92203.00;;;6.60
41940;BMP180;23057;48.554;14.454;2024-02-26T00:54:42;92203.00;;;6.60
41940;BMP180;23057;48.554;14.454;2024-02-26T00:57:12;92203.00;;;6.60
41940;BMP180;23057;48.554;14.454;2024-02-26T00:59:43;92203.00;;;6.60
41940;BMP180;23057;48.554;14.454;2024-02-26T01:02:14;92202.00;;;6.60
41940;BMP180;23057;48.554;14.454;2024-02-26T01:04:45;92187.00;;;6.60
41940;BMP180;23057;48.554;14.454;2024-02-26T01:07:16;92189.00;;;6.60
41940;BMP180;23057;48.554;14.454;2024-02-26T01:09:47;92187.00;;;6.60
41940;BMP180;23057;48.554;14.454;2024-02-26T01:12:18;92185.00;;;6.70
41940;BMP180;23057;48.554;14.454;2024-02-26T01:14:48;92178.00;;;6.70
41940;BMP180;23057;48.554;14.454;2024-02-26T01:17:19;92180.00;;;6.70
41940;BMP180;23057;48.554;14.454;2024-02-26T01:19:50;92171.00;;;6.70
41940;BMP180;23057;48.554;14.454;2024-02-26T01:22:21;92189.00;;;6.70
41940;BMP180;23057;48.554;14.454;2024-02-26T01:24:52;92175.00;;;6.80
41940;BMP180;23057;48.554;14.454;2024-02-26T01:27:23;92174.00;;;6.80
41940;BMP180;23057;48.554;14.454;2024-02-26T01:29:57;92166.00;;;6.80
41940;BMP180;23057;48.554;14.454;2024-02-26T01:32:28;92167.00;;;6.80
41940;BMP180;23057;48.554;14.454;2024-02-26T01:34:58;92169.00;;;6.80
41940;BMP180;23057;48.554;14.454;2024-02-26T01:37:29;92162.00;;;6.80
41940;BMP180;23057;48.554;14.454;2024-02-26T01:40:00;92162.00;;;6.80
41940;BMP180;23057;48.554;14.454;2024-02-26T01:42:34;92154.00;;;6.70
41940;BMP180;23057;48.554;14.454;2024-02-26T01:45:09;92151.00;;;6.70
41940;BMP180;23057;48.554;14.454;2024-02-26T01:47:46;92151.00;;;6.70
41940;BMP180;23057;48.554;14.454;2024-02-26T01:50:20;92155.00;;;6.60
41940;BMP180;23057;48.554;14.454;2024-02-26T01:52:55;92145.00;;;6.60
41940;BMP180;23057;48.554;14.454;2024-02-26T01:55:27;92147.00;;;6.50
41940;BMP180;23057;48.554;14.454;2024-02-26T01:57:59;92151.00;;;6.40
41940;BMP180;23057;48.554;14.454;2024-02-26T02:00:31;92143.00;;;6.40
41940;BMP180;23057;48.554;14.454;2024-02-26T02:03:03;92143.00;;;6.30
41940;BMP180;23057;48.554;14.454;2024-02-26T02:05:36;92140.00;;;6.20
41940;BMP180;23057;48.554;14.454;2024-02-26T02:08:13;92146.00;;;6.10
41940;BMP180;23057;48.554;14.454;2024-02-26T02:10:45;92155.00;;;6.10
41940;BMP180;23057;48.554;14.454;2024-02-26T02:13:18;92149.00;;;6.00
41940;BMP180;23057;48.554;14.454;2024-02-26T02:15:49;92152.00;;;5.90
41940;BMP180;23057;48.554;14.454;2024-02-26T02:18:19;92163.00;;;5.90
41940;BMP180;23057;48.554;14.454;2024-02-26T02:20:50;92156.00;;;5.80
41940;BMP180;23057;48.554;14.454;2024-02-26T02:23:22;92154.00;;;5.70
41940;BMP180;23057;48.554;14.454;2024-02-26T02:25:53;92156.00;;;5.70
41940;BMP180;23057;48.554;14.454;2024-02-26T02:28:27;92156.00;;;5.70
41940;BMP180;23057;48.554;14.454;2024-02-26T02:30:58;92154.00;;;5.70
41940;BMP180;23057;48.554;14.454;2024-02-26T02:33:31;92156.00;;;5.70
41940;BMP180;23057;48.554;14.454;2024-02-26T02:36:04;92161.00;;;5.70
41940;BMP180;23057;48.554;14.454;2024-02-26T02:38:49;92161.00;;;5.70
41940;BMP180;23057;48.554;14.454;2024-02-26T02:41:21;92151.00;;;5.80
41940;BMP180;23057;48.554;14.454;2024-02-26T02:43:52;92155.00;;;5.80
41940;BMP180;23057;48.554;14.454;2024-02-26T02:46:23;92146.00;;;5.90
41940;BMP180;23057;48.554;14.454;2024-02-26T02:48:54;92148.00;;;5.90
41940;BMP180;23057;48.554;14.454;2024-02-26T02:51:25;92147.00;;;5.90
41940;BMP180;23057;48.554;14.454;2024-02-26T02:53:56;92146.00;;;6.00
41940;BMP180;23057;48.554;14.454;2024-02-26T02:56:26;92142.00;;;6.10
41940;BMP180;23057;48.554;14.454;2024-02-26T02:58:57;92148.00;;;6.10
41940;BMP180;23057;48.554;14.454;2024-02-26T03:01:28;92148.00;;;6.10
41940;BMP180;23057;48.554;14.454;2024-02-26T03:03:59;92140.00;;;6.10
41940;BMP180;23057;48.554;14.454;2024-02-26T03:06:30;92156.00;;;6.10
41940;BMP180;23057;48.554;14.454;2024-02-26T03:09:00;92151.00;;;6.10
41940;BMP180;23057;48.554;14.454;2024-02-26T03:11:31;92145.00;;;6.10
41940;BMP180;23057;48.554;14.454;2024-02-26T03:14:02;92150.00;;;6.10
41940;BMP180;23057;48.554;14.454;2024-02-26T03:16:33;92144.00;;;6.10
41940;BMP180;23057;48.554;14.454;2024-02-26T03:19:04;92138.00;;;6.00
41940;BMP180;23057;48.554;14.454;2024-02-26T03:21:35;92147.00;;;6.00
41940;BMP180;23057;48.554;14.454;2024-02-26T03:24:06;92140.00;;;6.00
41940;BMP180;23057;48.554;14.454;2024-02-26T03:26:39;92153.00;;;5.90
41940;BMP180;23057;48.554;14.454;2024-02-26T03:29:10;92146.00;;;5.90
41940;BMP180;23057;48.554;14.454;2024-02-26T03:31:41;92149.00;;;5.90
41940;BMP180;23057;48.554;14.454;2024-02-26T03:34:12;92144.00;;;5.90
41940;BMP180;23057;48.554;14.454;2024-02-26T03:36:44;92147.00;;;5.90
41940;BMP180;23057;48.554;14.454;2024-02-26T03:39:15;92150.00;;;5.80
41940;BMP180;23057;48.554;14.454;2024-02-26T03:41:45;92147.00;;;5.80
41940;BMP180;23057;48.554;14.454;2024-02-26T03:44:16;92143.00;;;5.80
41940;BMP180;23057;48.554;14.454;2024-02-26T03:46:47;92131.00;;;5.80
41940;BMP180;23057;48.554;14.454;2024-02-26T03:49:18;92134.00;;;5.80
41940;BMP180;23057;48.554;14.454;2024-02-26T03:51:50;92134.00;;;5.80
41940;BMP180;23057;48.554;14.454;2024-02-26T03:54:20;92119.00;;;5.70
41940;BMP180;23057;48.554;14.454;2024-02-26T03:56:51;92126.00;;;5.70
41940;BMP180;23057;48.554;14.454;2024-02-26T03:59:22;92117.00;;;5.70
41940;BMP180;23057;48.554;14.454;2024-02-26T04:01:55;92114.00;;;5.60
41940;BMP180;23057;48.554;14.454;2024-02-26T04:04:26;92115.00;;;5.60
41940;BMP180;23057;48.554;14.454;2024-02-26T04:06:57;92125.00;;;5.60
41940;BMP180;23057;48.554;14.454;2024-02-26T04:09:27;92115.00;;;5.60
41940;BMP180;23057;48.554;14.454;2024-02-26T04:11:58;92121.00;;;5.60
41940;BMP180;23057;48.554;14.454;2024-02-26T04:14:29;92116.00;;;5.60
41940;BMP180;23057;48.554;14.454;2024-02-26T04:17:00;92115.00;;;5.50
41940;BMP180;23057;48.554;14.454;2024-02-26T04:19:31;92117.00;;;5.60
41940;BMP180;23057;48.554;14.454;2024-02-26T04:22:02;92120.00;;;5.50
41940;BMP180;23057;48.554;14.454;2024-02-26T04:24:33;92117.00;;;5.50
41940;BMP180;23057;48.554;14.454;2024-02-26T04:27:04;92116.00;;;5.40
41940;BMP180;23057;48.554;14.454;2024-02-26T04:29:35;92111.00;;;5.40
41940;BMP180;23057;48.554;14.454;2024-02-26T04:32:06;92120.00;;;5.40
41940;BMP180;23057;48.554;14.454;2024-02-26T04:34:37;92116.00;;;5.40
41940;BMP180;23057;48.554;14.454;2024-02-26T04:37:08;92125.00;;;5.40
41940;BMP180;23057;48.554;14.454;2024-02-26T04:39:38;92131.00;;;5.40
41940;BMP180;23057;48.554;14.454;2024-02-26T04:42:09;92128.00;;;5.40
41940;BMP180;23057;48.554;14.454;2024-02-26T04:44:40;92117.00;;;5.40
41940;BMP180;23057;48.554;14.454;2024-02-26T04:47:11;92120.00;;;5.40
41940;BMP180;23057;48.554;14.454;2024-02-26T04:49:42;92129.00;;;5.30
41940;BMP180;23057;48.554;14.454;2024-02-26T04:52:12;92120.00;;;5.30
41940;BMP180;23057;48.554;14.454;2024-02-26T04:54:43;92130.00;;;5.30
41940;BMP180;23057;48.554;14.454;2024-02-26T04:57:14;92128.00;;;5.30
41940;BMP180;23057;48.554;14.454;2024-02-26T04:59:45;92126.00;;;5.20
41940;BMP180;23057;48.554;14.454;2024-02-26T05:02:16;92115.00;;;5.20
41940;BMP180;23057;48.554;14.454;2024-02-26T05:04:47;92115.00;;;5.30
41940;BMP180;23057;48.554;14.454;2024-02-26T05:07:18;92118.00;;;5.30
41940;BMP180;23057;48.554;14.454;2024-02-26T05:09:48;92120.00;;;5.40
41940;BMP180;23057;48.554;14.454;2024-02-26T05:12:22;92115.00;;;5.40
41940;BMP180;23057;48.554;14.454;2024-02-26T05:14:53;92113.00;;;5.50
41940;BMP180;23057;48.554;14.454;2024-02-26T05:17:24;92112.00;;;5.50
41940;BMP180;23057;48.554;14.454;2024-02-26T05:19:55;92126.00;;;5.40
41940;BMP180;23057;48.554;14.454;2024-02-26T05:22:26;92118.00;;;5.40
41940;BMP180;23057;48.554;14.454;2024-02-26T05:24:56;92137.00;;;5.40
41940;BMP180;23057;48.554;14.454;2024-02-26T05:27:27;92130.00;;;5.40
41940;BMP180;23057;48.554;14.454;2024-02-26T05:29:58;92142.00;;;5.40
41940;BMP180;23057;48.554;14.454;2024-02-26T05:32:29;92142.00;;;5.40
41940;BMP180;23057;48.554;14.454;2024-02-26T05:35:00;92132.00;;;5.40
41940;BMP180;23057;48.554;14.454;2024-02-26T05:37:33;92140.00;;;5.40
41940;BMP180;23057;48.554;14.454;2024-02-26T05:40:05;92137.00;;;5.40
41940;BMP180;23057;48.554;14.454;2024-02-26T05:42:37;92133.00;;;5.40
41940;BMP180;23057;48.554;14.454;2024-02-26T05:45:08;92141.00;;;5.40
41940;BMP180;23057;48.554;14.454;2024-02-26T05:47:39;92139.00;;;5.30
41940;BMP180;23057;48.554;14.454;2024-02-26T05:50:13;92143.00;;;5.30
41940;BMP180;23057;48.554;14.454;2024-02-26T05:52:45;92138.00;;;5.30
41940;BMP180;23057;48.554;14.454;2024-02-26T05:55:16;92143.00;;;5.20
41940;BMP180;23057;48.554;14.454;2024-02-26T05:57:47;92143.00;;;5.20
41940;BMP180;23057;48.554;14.454;2024-02-26T06:00:20;92151.00;;;5.20
41940;BMP180;23057;48.554;14.454;2024-02-26T06:02:51;92149.00;;;5.20
41940;BMP180;23057;48.554;14.454;2024-02-26T06:05:22;92149.00;;;5.20
41940;BMP180;23057;48.554;14.454;2024-02-26T06:07:53;92147.00;;;5.20
41940;BMP180;23057;48.554;14.454;2024-02-26T06:10:24;92146.00;;;5.30
41940;BMP180;23057;48.554;14.454;2024-02-26T06:12:55;92147.00;;;5.50
41940;BMP180;23057;48.554;14.454;2024-02-26T06:15:25;92149.00;;;5.60
41940;BMP180;23057;48.554;14.454;2024-02-26T06:17:56;92157.00;;;5.80
41940;BMP180;23057;48.554;14.454;2024-02-26T06:20:27;92148.00;;;5.90
41940;BMP180;23057;48.554;14.454;2024-02-26T06:22:58;92143.00;;;5.90
41940;BMP180;23057;48.554;14.454;2024-02-26T06:25:29;92154.00;;;6.00
41940;BMP180;23057;48.554;14.454;2024-02-26T06:28:00;92159.00;;;6.00
41940;BMP180;23057;48.554;14.454;2024-02-26T06:30:30;92157.00;;;6.00
41940;BMP180;23057;48.554;14.454;2024-02-26T06:33:01;92154.00;;;6.10
41940;BMP180;23057;48.554;14.454;2024-02-26T06:35:33;92161.00;;;6.10
41940;BMP180;23057;48.554;14.454;2024-02-26T06:38:04;92161.00;;;6.00
41940;BMP180;23057;48.554;14.454;2024-02-26T06:40:35;92164.00;;;6.00
41940;BMP180;23057;48.554;14.454;2024-02-26T06:43:06;92170.00;;;5.90
41940;BMP180;23057;48.554;14.454;2024-02-26T06:45:36;92168.00;;;5.90
41940;BMP180;23057;48.554;14.454;2024-02-26T06:48:07;92168.00;;;6.00
41940;BMP180;23057;48.554;14.454;2024-02-26T06:50:38;92180.00;;;6.00
41940;BMP180;23057;48.554;14.454;2024-02-26T06:53:09;92173.00;;;6.00
41940;BMP180;23057;48.554;14.454;2024-02-26T06:55:40;92189.00;;;6.00
41940;BMP180;23057;48.554;14.454;2024-02-26T06:58:11;92196.00;;;6.10
41940;BMP180;23057;48.554;14.454;2024-02-26T07:00:42;92193.00;;;6.30
41940;BMP180;23057;48.554;14.454;2024-02-26T07:03:12;92186.00;;;6.40
41940;BMP180;23057;48.554;14.454;2024-02-26T07:05:44;92185.00;;;6.70
41940;BMP180;23057;48.554;14.454;2024-02-26T07:08:16;92189.00;;;6.90
41940;BMP180;23057;48.554;14.454;2024-02-26T07:10:47;92189.00;;;7.10
41940;BMP180;23057;48.554;14.454;2024-02-26T07:13:18;92187.00;;;7.30
41940;BMP180;23057;48.554;14.454;2024-02-26T07:15:49;92200.00;;;7.40
41940;BMP180;23057;48.554;14.454;2024-02-26T07:18:20;92187.00;;;7.50
41940;BMP180;23057;48.554;14.454;2024-02-26T07:20:51;92188.00;;;7.70
41940;BMP180;23057;48.554;14.454;2024-02-26T07:23:22;92199.00;;;7.90
41940;BMP180;23057;48.554;14.454;2024-02-26T07:25:52;92189.00;;;8.10
41940;BMP180;23057;48.554;14.454;2024-02-26T07:28:24;92193.00;;;8.30
41940;BMP180;23057;48.554;14.454;2024-02-26T07:30:55;92196.00;;;8.50
41940;BMP180;23057;48.554;14.454;2024-02-26T07:33:26;92196.00;;;8.70
41940;BMP180;23057;48.554;14.454;2024-02-26T07:35:57;92185.00;;;8.90
41940;BMP180;23057;48.554;14.454;2024-02-26T07:38:28;92201.00;;;9.20
41940;BMP180;23057;48.554;14.454;2024-02-26T07:41:02;92195.00;;;9.30
41940;BMP180;23057;48.554;14.454;2024-02-26T07:43:33;92198.00;;;9.50
41940;BMP180;23057;48.554;14.454;2024-02-26T07:46:04;92202.00;;;9.60
41940;BMP180;23057;48.554;14.454;2024-02-26T07:48:35;92202.00;;;9.80
41940;BMP180;23057;48.554;14.454;2024-02-26T07:51:06;92201.00;;;9.90
41940;BMP180;23057;48.554;14.454;2024-02-26T07:53:37;92195.00;;;10.10
41940;BMP180;23057;48.554;14.454;2024-02-26T07:56:09;92199.00;;;10.20
41940;BMP180;23057;48.554;14.454;2024-02-26T07:58:40;92211.00;;;10.30
41940;BMP180;23057;48.554;14.454;2024-02-26T08:01:13;92212.00;;;10.40
41940;BMP180;23057;48.554;14.454;2024-02-26T08:03:45;92218.00;;;10.40
41940;BMP180;23057;48.554;14.454;2024-02-26T08:06:16;92216.00;;;10.40
41940;BMP180;23057;48.554;14.454;2024-02-26T08:08:47;92209.00;;;10.50
41940;BMP180;23057;48.554;14.454;2024-02-26T08:11:18;92214.00;;;10.50
41940;BMP180;23057;48.554;14.454;2024-02-26T08:13:49;92207.00;;;10.50
41940;BMP180;23057;48.554;14.454;2024-02-26T08:16:20;92215.00;;;10.70
41940;BMP180;23057;48.554;14.454;2024-02-26T08:18:51;92212.00;;;10.70
41940;BMP180;23057;48.554;14.454;2024-02-26T08:21:22;92215.00;;;10.80
41940;BMP180;23057;48.554;14.454;2024-02-26T08:23:52;92215.00;;;10.90
41940;BMP180;23057;48.554;14.454;2024-02-26T08:26:23;92214.00;;;11.10
41940;BMP180;23057;48.554;14.454;2024-02-26T08:28:54;92220.00;;;11.20
41940;BMP180;23057;48.554;14.454;2024-02-26T08:31:26;92217.00;;;11.30
41940;BMP180;23057;48.554;14.454;2024-02-26T08:33:58;92228.00;;;11.30
41940;BMP180;23057;48.554;14.454;2024-02-26T08:36:32;92224.00;;;11.40
41940;BMP180;23057;48.554;14.454;2024-02-26T08:39:04;92221.00;;;11.50
41940;BMP180;23057;48.554;14.454;2024-02-26T08:41:36;92228.00;;;11.60
41940;BMP180;23057;48.554;14.454;2024-02-26T08:44:06;92232.00;;;11.60
41940;BMP180;23057;48.554;14.454;2024-02-26T08:46:37;92226.00;;;11.60
41940;BMP180;23057;48.554;14.454;2024-02-26T08:49:09;92230.00;;;11.60
41940;BMP180;23057;48.554;14.454;2024-02-26T08:51:43;92231.00;;;11.60
41940;BMP180;23057;48.554;14.454;2024-02-26T08:54:14;92235.00;;;11.70
41940;BMP180;23057;48.554;14.454;2024-02-26T08:56:45;92234.00;;;11.70
41940;BMP180;23057;48.554;14.454;2024-02-26T08:59:16;92236.00;;;11.80
41940;BMP180;23057;48.554;14.454;2024-02-26T09:01:50;92237.00;;;11.80
41940;BMP180;23057;48.554;14.454;2024-02-26T09:04:20;92233.00;;;11.80
41940;BMP180;23057;48.554;14.454;2024-02-26T09:06:51;92243.00;;;11.80
41940;BMP180;23057;48.554;14.454;2024-02-26T09:09:22;92243.00;;;11.80
41940;BMP180;23057;48.554;14.454;2024-02-26T09:11:55;92240.00;;;11.80
41940;BMP180;23057;48.554;14.454;2024-02-26T09:14:26;92240.00;;;11.90
41940;BMP180;23057;48.554;14.454;2024-02-26T09:16:57;92249.00;;;11.90
41940;BMP180;23057;48.554;14.454;2024-02-26T09:19:28;92242.00;;;12.00
41940;BMP180;23057;48.554;14.454;2024-02-26T09:21:58;92245.00;;;12.10
41940;BMP180;23057;48.554;14.454;2024-02-26T09:24:29;92244.00;;;12.30
41940;BMP180;23057;48.554;14.454;2024-02-26T09:27:00;92252.00;;;12.50
41940;BMP180;23057;48.554;14.454;2024-02-26T09:29:31;92243.00;;;12.60
41940;BMP180;23057;48.554;14.454;2024-02-26T09:32:03;92262.00;;;12.80
41940;BMP180;23057;48.554;14.454;2024-02-26T09:34:34;92261.00;;;13.00
41940;BMP180;23057;48.554;14.454;2024-02-26T09:37:04;92259.00;;;13.20
41940;BMP180;23057;48.554;14.454;2024-02-26T09:39:35;92265.00;;;13.40
41940;BMP180;23057;48.554;14.454;2024-02-26T09:42:09;92256.00;;;13.50
41940;BMP180;23057;48.554;14.454;2024-02-26T09:44:44;92261.00;;;13.70
41940;BMP180;23057;48.554;14.454;2024-02-26T09:47:15;92267.00;;;13.90
41940;BMP180;23057;48.554;14.454;2024-02-26T09:49:49;92267.00;;;14.10
41940;BMP180;23057;48.554;14.454;2024-02-26T09:52:24;92270.00;;;14.20
41940;BMP180;23057;48.554;14.454;2024-02-26T09:54:57;92267.00;;;14.30
41940;BMP180;23057;48.554;14.454;2024-02-26T09:57:28;92271.00;;;14.40
41940;BMP180;23057;48.554;14.454;2024-02-26T10:00:03;92267.00;;;14.50
41940;BMP180;23057;48.554;14.454;2024-02-26T10:02:38;92279.00;;;14.60
41940;BMP180;23057;48.554;14.454;2024-02-26T10:05:14;92272.00;;;14.70
41940;BMP180;23057;48.554;14.454;2024-02-26T10:07:49;92272.00;;;14.90
41940;BMP180;23057;48.554;14.454;2024-02-26T10:10:22;92272.00;;;15.00
41940;BMP180;23057;48.554;14.454;2024-02-26T10:12:53;92274.00;;;15.10
41940;BMP180;23057;48.554;14.454;2024-02-26T10:15:23;92279.00;;;15.10
41940;BMP180;23057;48.554;14.454;2024-02-26T10:17:54;92277.00;;;15.20
41940;BMP180;23057;48.554;14.454;2024-02-26T10:20:25;92281.00;;;15.20
41940;BMP180;23057;48.554;14.454;2024-02-26T10:22:58;92281.00;;;15.30
41940;BMP180;23057;48.554;14.454;2024-02-26T10:25:32;92281.00;;;15.30
41940;BMP180;23057;48.554;14.454;2024-02-26T10:28:03;92284.00;;;15.50
41940;BMP180;23057;48.554;14.454;2024-02-26T10:30:37;92286.00;;;15.50
41940;BMP180;23057;48.554;14.454;2024-02-26T10:33:09;92284.00;;;15.60
41940;BMP180;23057;48.554;14.454;2024-02-26T10:35:46;92286.00;;;15.70
41940;BMP180;23057;48.554;14.454;2024-02-26T10:38:17;92289.00;;;15.70
41940;BMP180;23057;48.554;14.454;2024-02-26T10:40:50;92290.00;;;15.90
41940;BMP180;23057;48.554;14.454;2024-02-26T10:43:21;92294.00;;;16.00
41940;BMP180;23057;48.554;14.454;2024-02-26T10:45:55;92285.00;;;16.10
41940;BMP180;23057;48.554;14.454;2024-02-26T10:48:26;92287.00;;;16.10
41940;BMP180;23057;48.554;14.454;2024-02-26T10:50:57;92294.00;;;16.00
41940;BMP180;23057;48.554;14.454;2024-02-26T10:53:29;92292.00;;;15.90
41940;BMP180;23057;48.554;14.454;2024-02-26T10:56:04;92289.00;;;15.70
41940;BMP180;23057;48.554;14.454;2024-02-26T10:58:36;92293.00;;;15.60
41940;BMP180;23057;48.554;14.454;2024-02-26T11:01:09;92283.00;;;15.30
41940;BMP180;23057;48.554;14.454;2024-02-26T11:03:42;92289.00;;;15.20
41940;BMP180;23057;48.554;14.454;2024-02-26T11:06:14;92281.00;;;15.10
41940;BMP180;23057;48.554;14.454;2024-02-26T11:08:49;92288.00;;;15.10
41940;BMP180;23057;48.554;14.454;2024-02-26T11:11:21;92286.00;;;15.00
41940;BMP180;23057;48.554;14.454;2024-02-26T11:13:54;92285.00;;;14.90
41940;BMP180;23057;48.554;14.454;2024-02-26T11:16:27;92285.00;;;14.90
41940;BMP180;23057;48.554;14.454;2024-02-26T11:18:59;92277.00;;;14.80
41940;BMP180;23057;48.554;14.454;2024-02-26T11:21:31;92279.00;;;14.80
41940;BMP180;23057;48.554;14.454;2024-02-26T11:24:16;92279.00;;;14.80
41940;BMP180;23057;48.554;14.454;2024-02-26T11:26:55;92274.00;;;14.80
41940;BMP180;23057;48.554;14.454;2024-02-26T11:29:43;92276.00;;;14.80
41940;BMP180;23057;48.554;14.454;2024-02-26T11:32:18;92270.00;;;14.70
41940;BMP180;23057;48.554;14.454;2024-02-26T11:34:50;92271.00;;;14.70
41940;BMP180;23057;48.554;14.454;2024-02-26T11:37:21;92276.00;;;14.60
41940;BMP180;23057;48.554;14.454;2024-02-26T11:39:53;92272.00;;;14.60
41940;BMP180;23057;48.554;14.454;2024-02-26T11:42:24;92284.00;;;14.50
41940;BMP180;23057;48.554;14.454;2024-02-26T11:44:56;92276.00;;;14.40
41940;BMP180;23057;48.554;14.454;2024-02-26T11:47:35;92274.00;;;14.30
41940;BMP180;23057;48.554;14.454;2024-02-26T11:50:40;92269.00;;;14.30
41940;BMP180;23057;48.554;14.454;2024-02-26T11:53:31;92262.00;;;14.10
41940;BMP180;23057;48.554;14.454;2024-02-26T12:01:48;92276.00;;;14.20
41940;BMP180;23057;48.554;14.454;2024-02-26T12:04:26;92275.00;;;14.20
41940;BMP180;23057;48.554;14.454;2024-02-26T12:07:04;92280.00;;;14.30
41940;BMP180;23057;48.554;14.454;2024-02-26T12:09:41;92293.00;;;14.40
41940;BMP180;23057;48.554;14.454;2024-02-26T12:12:18;92290.00;;;14.60
41940;BMP180;23057;48.554;14.454;2024-02-26T12:14:56;92296.00;;;14.60
41940;BMP180;23057;48.554;14.454;2024-02-26T12:17:27;92289.00;;;14.60
41940;BMP180;23057;48.554;14.454;2024-02-26T12:20:12;92294.00;;;14.70
41940;BMP180;23057;48.554;14.454;2024-02-26T12:22:47;92291.00;;;14.60
41940;BMP180;23057;48.554;14.454;2024-02-26T12:25:24;92291.00;;;14.70
41940;BMP180;23057;48.554;14.454;2024-02-26T12:28:00;92290.00;;;14.70
41940;BMP180;23057;48.554;14.454;2024-02-26T12:30:31;92294.00;;;14.60
41940;BMP180;23057;48.554;14.454;2024-02-26T12:33:03;92294.00;;;14.50
41940;BMP180;23057;48.554;14.454;2024-02-26T12:35:35;92294.00;;;14.50
41940;BMP180;23057;48.554;14.454;2024-02-26T12:38:07;92288.00;;;14.40
41940;BMP180;23057;48.554;14.454;2024-02-26T12:40:39;92297.00;;;14.30
41940;BMP180;23057;48.554;14.454;2024-02-26T12:43:10;92296.00;;;14.20
41940;BMP180;23057;48.554;14.454;2024-02-26T12:45:43;92306.00;;;14.10
41940;BMP180;23057;48.554;14.454;2024-02-26T12:48:17;92298.00;;;14.00
41940;BMP180;23057;48.554;14.454;2024-02-26T12:50:49;92305.00;;;13.90
41940;BMP180;23057;48.554;14.454;2024-02-26T12:53:21;92301.00;;;13.80
41940;BMP180;23057;48.554;14.454;2024-02-26T12:55:54;92309.00;;;13.70
41940;BMP180;23057;48.554;14.454;2024-02-26T12:58:26;92315.00;;;13.60
41940;BMP180;23057;48.554;14.454;2024-02-26T13:00:58;92320.00;;;13.60
41940;BMP180;23057;48.554;14.454;2024-02-26T13:03:30;92319.00;;;13.50
41940;BMP180;23057;48.554;14.454;2024-02-26T13:06:05;92318.00;;;13.40
41940;BMP180;23057;48.554;14.454;2024-02-26T13:08:36;92326.00;;;13.30
41940;BMP180;23057;48.554;14.454;2024-02-26T13:11:08;92324.00;;;13.20
41940;BMP180;23057;48.554;14.454;2024-02-26T13:13:39;92314.00;;;13.10
41940;BMP180;23057;48.554;14.454;2024-02-26T13:16:15;92323.00;;;13.00
41940;BMP180;23057;48.554;14.454;2024-02-26T13:18:46;92319.00;;;12.90
41940;BMP180;23057;48.554;14.454;2024-02-26T13:21:18;92310.00;;;12.80
41940;BMP180;23057;48.554;14.454;2024-02-26T13:23:52;92308.00;;;12.60
41940;BMP180;23057;48.554;14.454;2024-02-26T13:26:23;92312.00;;;12.60
41940;BMP180;23057;48.554;14.454;2024-02-26T13:29:04;92331.00;;;12.50
41940;BMP180;23057;48.554;14.454;2024-02-26T13:31:41;92325.00;;;12.50
41940;BMP180;23057;48.554;14.454;2024-02-26T13:34:27;92334.00;;;12.50
41940;BMP180;23057;48.554;14.454;2024-02-26T13:36:59;92336.00;;;12.50
41940;BMP180;23057;48.554;14.454;2024-02-26T13:39:29;92330.00;;;12.40
41940;BMP180;23057;48.554;14.454;2024-02-26T13:42:00;92329.00;;;12.40
41940;BMP180;23057;48.554;14.454;2024-02-26T13:44:31;92331.00;;;12.30
41940;BMP180;23057;48.554;14.454;2024-02-26T13:47:04;92328.00;;;12.20
41940;BMP180;23057;48.554;14.454;2024-02-26T13:49:35;92328.00;;;12.10
41940;BMP180;23057;48.554;14.454;2024-02-26T13:52:06;92331.00;;;12.10
41940;BMP180;23057;48.554;14.454;2024-02-26T13:54:36;92335.00;;;12.10
41940;BMP180;23057;48.554;14.454;2024-02-26T13:57:09;92336.00;;;12.10
41940;BMP180;23057;48.554;14.454;2024-02-26T13:59:40;92329.00;;;12.00
41940;BMP180;23057;48.554;14.454;2024-02-26T14:02:12;92329.00;;;12.00
41940;BMP180;23057;48.554;14.454;2024-02-26T14:04:43;92331.00;;;12.00
41940;BMP180;23057;48.554;14.454;2024-02-26T14:07:15;92324.00;;;11.90
41940;BMP180;23057;48.554;14.454;2024-02-26T14:09:47;92320.00;;;11.90
41940;BMP180;23057;48.554;14.454;2024-02-26T14:12:18;92334.00;;;11.90
41940;BMP180;23057;48.554;14.454;2024-02-26T14:14:49;92326.00;;;12.00
41940;BMP180;23057;48.554;14.454;2024-02-26T14:17:20;92339.00;;;12.00
41940;BMP180;23057;48.554;14.454;2024-02-26T14:19:51;92351.00;;;12.10
41940;BMP180;23057;48.554;14.454;2024-02-26T14:22:22;92347.00;;;12.00
41940;BMP180;23057;48.554;14.454;2024-02-26T14:24:53;92349.00;;;12.10
41940;BMP180;23057;48.554;14.454;2024-02-26T14:27:24;92354.00;;;12.10
41940;BMP180;23057;48.554;14.454;2024-02-26T14:29:55;92355.00;;;12.10
41940;BMP180;23057;48.554;14.454;2024-02-26T14:32:25;92358.00;;;12.20
41940;BMP180;23057;48.554;14.454;2024-02-26T14:34:56;92366.00;;;12.20
41940;BMP180;23057;48.554;14.454;2024-02-26T14:37:27;92372.00;;;12.30